Terminal Aerodrome Forecast
Issued by NWS Newport/Morehead City, NC

Home | Current Version | Previous Version | Graphics & Text | Print | Product List | Glossary On
Versions: 1 2 3 4 5 6 7 8 9 10 11 12 13 14 15
924
FTUS42 KMHX 221123
TAFEWN
TAF
KEWN 221123Z 2212/2312 22005KT P6SM FEW250
     FM221700 22010G15KT P6SM FEW050
     FM230000 20005KT P6SM FEW250=

USA.gov is the U.S. government's official web portal to all federal, state and local government web resources and services.